createdAt,value
2023-02-12T00:00:46.138Z,101418.63
2023-02-12T00:01:48.670Z,101419.47
2023-02-12T00:02:50.905Z,101404.72
2023-02-12T00:03:53.356Z,101410.81
2023-02-12T00:04:55.690Z,101411.69
2023-02-12T00:06:01.029Z,101411.56
2023-02-12T00:07:03.317Z,101410.75
2023-02-12T00:08:06.029Z,101412.50
2023-02-12T00:09:08.369Z,101415.06
2023-02-12T00:10:11.260Z,101410.66
2023-02-12T00:11:19.628Z,101417.69
2023-02-12T00:12:21.844Z,101410.69
2023-02-12T00:13:26.567Z,101412.41
2023-02-12T00:14:28.768Z,101413.25
2023-02-12T00:15:31.057Z,101415.94
2023-02-12T00:16:33.287Z,101403.72
2023-02-12T00:17:35.526Z,101415.81
2023-02-12T00:18:37.765Z,101414.91
2023-02-12T00:19:39.954Z,101421.84
2023-02-12T00:20:42.269Z,101412.22
2023-02-12T00:21:44.507Z,101415.66
2023-02-12T00:22:46.900Z,101416.47
2023-02-12T00:23:49.812Z,101415.59
2023-02-12T00:24:52.092Z,101413.84
2023-02-12T00:25:54.790Z,101409.38
2023-02-12T00:26:57.302Z,101410.16
2023-02-12T00:27:59.696Z,101415.38
2023-02-12T00:29:02.175Z,101411.88
2023-02-12T00:30:04.688Z,101417.97
2023-02-12T00:31:08.650Z,101416.19
2023-02-12T00:32:11.032Z,101416.91
2023-02-12T00:33:13.237Z,101413.25
2023-02-12T00:34:15.624Z,101411.16
2023-02-12T00:35:18.094Z,101403.38
2023-02-12T00:36:24.402Z,101418.94
2023-02-12T00:37:26.669Z,101406.06
2023-02-12T00:38:29.275Z,101413.22
2023-02-12T00:39:31.567Z,101416.81
2023-02-12T00:40:33.787Z,101422.75
2023-02-12T00:41:36.094Z,101416.44
2023-02-12T00:42:38.521Z,101428.63
2023-02-12T00:43:41.198Z,101424.34
2023-02-12T00:44:43.552Z,101429.69
2023-02-12T00:45:46.609Z,101432.50
2023-02-12T00:46:48.898Z,101426.53
2023-02-12T00:47:52.244Z,101427.44
2023-02-12T00:48:54.467Z,101433.59
2023-02-12T00:49:56.848Z,101436.31
2023-02-12T00:50:59.403Z,101441.53
2023-02-12T00:52:04.924Z,101431.97
2023-02-12T00:53:07.938Z,101432.59
2023-02-12T00:54:10.228Z,101429.75
2023-02-12T00:55:12.387Z,101432.28
2023-02-12T00:56:14.737Z,101423.34
2023-02-12T00:57:16.974Z,101424.22
2023-02-12T00:58:19.243Z,101418.97
2023-02-12T00:59:22.836Z,101431.88
2023-02-12T01:00:25.212Z,101420.69
2023-02-12T01:01:27.483Z,101434.69
2023-02-12T01:02:29.845Z,101423.53
2023-02-12T01:03:32.076Z,101444.47
2023-02-12T01:04:35.039Z,101438.59
2023-02-12T01:05:37.324Z,101448.28
2023-02-12T01:06:39.516Z,101436.34
2023-02-12T01:07:41.820Z,101437.28
2023-02-12T01:08:44.000Z,101423.47
2023-02-12T01:09:46.309Z,101438.28
2023-02-12T01:10:58.208Z,101427.84
2023-02-12T01:12:00.482Z,101442.66
2023-02-12T01:13:02.772Z,101441.78
2023-02-12T01:14:05.211Z,101440.00
2023-02-12T01:15:07.882Z,101429.66
2023-02-12T01:16:16.746Z,101435.78
2023-02-12T01:17:19.003Z,101428.81
2023-02-12T01:18:21.244Z,101426.09
2023-02-12T01:19:23.581Z,101437.97
2023-02-12T01:20:26.147Z,101435.91
2023-02-12T01:21:32.112Z,101436.78
2023-02-12T01:22:35.760Z,101429.88
2023-02-12T01:23:37.971Z,101435.06
2023-02-12T01:24:40.287Z,101430.59
2023-02-12T01:25:42.790Z,101436.72
2023-02-12T01:26:45.009Z,101428.03
2023-02-12T01:27:47.288Z,101428.97
2023-02-12T01:28:52.481Z,101424.59
2023-02-12T01:29:54.685Z,101429.88
2023-02-12T01:30:57.101Z,101435.97
2023-02-12T01:31:59.451Z,101434.28
2023-02-12T01:33:02.438Z,101429.13
2023-02-12T01:34:06.465Z,101437.72
2023-02-12T01:35:10.384Z,101429.69
2023-02-12T01:36:12.715Z,101426.84
2023-02-12T01:37:15.712Z,101437.25
2023-02-12T01:38:17.933Z,101436.38
2023-02-12T01:39:20.867Z,101434.72
2023-02-12T01:40:23.025Z,101427.72
2023-02-12T01:41:28.704Z,101440.69
2023-02-12T01:42:34.227Z,101434.56
2023-02-12T01:43:38.231Z,101430.34
2023-02-12T01:44:45.548Z,101428.59
2023-02-12T01:45:53.988Z,101421.59
2023-02-12T01:46:59.828Z,101424.34
2023-02-12T01:48:02.224Z,101430.50
2023-02-12T01:49:09.393Z,101427.84
2023-02-12T01:50:17.312Z,101424.31
2023-02-12T01:51:22.200Z,101428.72
2023-02-12T01:52:30.288Z,101435.66
2023-02-12T01:53:37.965Z,101427.94
2023-02-12T01:54:41.685Z,101420.00
2023-02-12T01:55:44.026Z,101426.09
2023-02-12T01:56:46.733Z,101411.53
2023-02-12T01:57:49.286Z,101424.69
2023-02-12T01:58:53.617Z,101421.25
2023-02-12T01:59:58.140Z,101423.81
2023-02-12T02:02:09.203Z,101421.19
2023-02-12T02:03:12.635Z,101416.81
2023-02-12T02:04:23.013Z,101421.94
2023-02-12T02:05:35.265Z,101407.19
2023-02-12T02:07:04.619Z,101414.25
2023-02-12T02:08:07.028Z,101417.78
2023-02-12T02:09:09.455Z,101415.22
2023-02-12T02:10:11.821Z,101412.63
2023-02-12T02:11:32.721Z,101421.34
2023-02-12T02:12:55.565Z,101416.88
2023-02-12T02:14:16.596Z,101416.78
2023-02-12T02:15:18.891Z,101411.59
2023-02-12T02:16:26.718Z,101406.47
2023-02-12T02:17:56.779Z,101410.72
2023-02-12T02:19:27.280Z,101411.56
2023-02-12T02:20:35.371Z,101419.91
2023-02-12T02:22:06.947Z,101411.16
2023-02-12T02:23:36.719Z,101414.00
2023-02-12T02:25:29.285Z,101414.22
2023-02-12T02:26:49.499Z,101412.63
2023-02-12T02:28:39.602Z,101405.09
2023-02-12T02:30:05.709Z,101404.25
2023-02-12T02:31:41.977Z,101403.44
2023-02-12T02:33:04.713Z,101402.50
2023-02-12T02:34:45.053Z,101402.38
2023-02-12T02:35:55.955Z,101400.47
2023-02-12T02:37:01.476Z,101402.16
2023-02-12T02:38:11.748Z,101404.94
2023-02-12T02:39:42.175Z,101406.00
2023-02-12T02:40:55.233Z,101404.31
2023-02-12T02:42:07.983Z,101400.00
2023-02-12T02:43:33.474Z,101398.22
2023-02-12T02:44:43.759Z,101393.03
2023-02-12T02:45:48.287Z,101400.81
2023-02-12T02:46:52.455Z,101397.22
2023-02-12T02:48:08.410Z,101389.31
2023-02-12T02:49:17.675Z,101398.88
2023-02-12T02:50:25.915Z,101395.50
2023-02-12T02:51:33.481Z,101397.28
2023-02-12T02:52:59.723Z,101394.75
2023-02-12T02:54:07.525Z,101399.06
2023-02-12T02:55:12.911Z,101393.84
2023-02-12T02:56:19.523Z,101402.50
2023-02-12T02:57:35.369Z,101403.38
2023-02-12T02:58:46.997Z,101399.06
2023-02-12T03:00:03.936Z,101397.38
2023-02-12T03:01:18.041Z,101403.41
2023-02-12T03:02:24.853Z,101394.66
2023-02-12T03:03:42.477Z,101393.84
2023-02-12T03:04:49.712Z,101403.19
2023-02-12T03:05:58.688Z,101398.78
2023-02-12T03:07:11.725Z,101402.34
2023-02-12T03:08:25.159Z,101395.47
2023-02-12T03:09:46.069Z,101388.47
2023-02-12T03:10:53.988Z,101388.44
2023-02-12T03:12:00.966Z,101389.19
2023-02-12T03:13:14.625Z,101381.28
2023-02-12T03:14:29.205Z,101395.16
2023-02-12T03:15:42.047Z,101389.84
2023-02-12T03:17:08.900Z,101388.00
2023-02-12T03:18:23.478Z,101394.16
2023-02-12T03:19:30.205Z,101390.69
2023-02-12T03:20:40.745Z,101387.97
2023-02-12T03:22:06.252Z,101391.34
2023-02-12T03:23:21.427Z,101383.34
2023-02-12T03:24:38.807Z,101394.53
2023-02-12T03:25:54.266Z,101399.44
2023-02-12T03:27:02.403Z,101399.38
2023-02-12T03:28:20.420Z,101405.44
2023-02-12T03:29:42.563Z,101397.78
2023-02-12T03:30:53.606Z,101409.97
2023-02-12T03:32:31.067Z,101407.41
2023-02-12T03:33:41.627Z,101416.88
2023-02-12T03:35:11.792Z,101415.94
2023-02-12T03:36:42.605Z,101400.53
2023-02-12T03:38:02.495Z,101404.09
2023-02-12T03:39:13.857Z,101405.97
2023-02-12T03:40:22.724Z,101411.13
2023-02-12T03:41:31.718Z,101406.66
2023-02-12T03:42:53.840Z,101405.06
2023-02-12T03:44:05.629Z,101401.78
2023-02-12T03:45:14.119Z,101409.72
2023-02-12T03:46:28.084Z,101406.16
2023-02-12T03:47:38.977Z,101403.38
2023-02-12T03:48:52.901Z,101405.97
2023-02-12T03:50:19.057Z,101410.22
2023-02-12T03:51:31.110Z,101406.00
2023-02-12T03:52:34.096Z,101409.44
2023-02-12T03:53:36.352Z,101404.19
2023-02-12T03:54:38.777Z,101406.94
2023-02-12T03:55:44.987Z,101404.50
2023-02-12T03:57:08.699Z,101401.16
2023-02-12T03:58:15.956Z,101409.94
2023-02-12T03:59:27.382Z,101402.13
2023-02-12T04:00:30.338Z,101409.00
2023-02-12T04:01:35.254Z,101403.59
2023-02-12T04:02:37.713Z,101399.13
2023-02-12T04:03:41.255Z,101404.19
2023-02-12T04:04:44.933Z,101407.56
2023-02-12T04:05:47.083Z,101410.41
2023-02-12T04:06:50.507Z,101412.34
2023-02-12T04:07:55.076Z,101408.97
2023-02-12T04:09:09.844Z,101416.81
2023-02-12T04:10:12.945Z,101414.25
2023-02-12T04:12:09.304Z,101408.34
2023-02-12T04:13:21.337Z,101405.81
2023-02-12T04:14:41.761Z,101409.47
2023-02-12T04:15:59.814Z,101403.19
2023-02-12T04:17:26.731Z,101415.19
2023-02-12T04:18:29.259Z,101420.22
2023-02-12T04:19:47.444Z,101412.50
2023-02-12T04:20:49.609Z,101418.41
2023-02-12T04:22:19.448Z,101417.53
2023-02-12T04:24:00.280Z,101419.47
2023-02-12T04:25:12.085Z,101417.81
2023-02-12T04:26:33.869Z,101417.78
2023-02-12T04:27:52.496Z,101417.72
2023-02-12T04:29:39.645Z,101424.69
2023-02-12T04:30:54.236Z,101422.84
2023-02-12T04:32:28.461Z,101422.97
2023-02-12T04:33:44.761Z,101425.72
2023-02-12T04:35:02.773Z,101424.06
2023-02-12T04:36:24.554Z,101431.19
2023-02-12T04:37:43.644Z,101432.91
2023-02-12T04:38:55.572Z,101431.22
2023-02-12T04:39:59.025Z,101432.97
2023-02-12T04:41:01.724Z,101434.72
2023-02-12T04:42:04.348Z,101429.56
2023-02-12T04:43:06.796Z,101427.84
2023-02-12T04:44:23.784Z,101428.72
2023-02-12T04:45:29.645Z,101431.19
2023-02-12T04:46:31.909Z,101429.50
2023-02-12T04:47:34.153Z,101427.75
2023-02-12T04:48:50.259Z,101433.84
2023-02-12T04:49:52.429Z,101430.38
2023-02-12T04:50:54.672Z,101431.16
2023-02-12T04:51:57.392Z,101438.06
2023-02-12T04:52:59.639Z,101426.84
2023-02-12T04:54:01.792Z,101430.38
2023-02-12T04:55:04.269Z,101435.59
2023-02-12T04:56:08.509Z,101429.53
2023-02-12T04:57:10.754Z,101428.69
2023-02-12T04:58:13.014Z,101433.91
2023-02-12T04:59:15.977Z,101434.59
2023-02-12T05:00:18.475Z,101428.34
2023-02-12T05:01:20.676Z,101432.50
2023-02-12T05:02:23.064Z,101431.56
2023-02-12T05:03:25.300Z,101433.41
2023-02-12T05:04:27.637Z,101429.97
2023-02-12T05:05:29.832Z,101429.13
2023-02-12T05:06:34.421Z,101422.00
2023-02-12T05:07:36.760Z,101428.03
2023-02-12T05:08:38.955Z,101425.09
2023-02-12T05:09:41.206Z,101426.09
2023-02-12T05:10:43.403Z,101421.78
2023-02-12T05:11:46.096Z,101417.44
2023-02-12T05:12:48.329Z,101420.94
2023-02-12T05:13:51.719Z,101414.75
2023-02-12T05:14:53.958Z,101423.41
2023-02-12T05:15:56.437Z,101415.47
2023-02-12T05:16:58.904Z,101416.41
2023-02-12T05:18:01.109Z,101416.41
2023-02-12T05:19:03.664Z,101424.03
2023-02-12T05:20:06.420Z,101422.31
2023-02-12T05:21:08.614Z,101420.81
2023-02-12T05:22:10.842Z,101414.72
2023-02-12T05:23:13.052Z,101419.00
2023-02-12T05:24:15.271Z,101425.09
2023-02-12T05:25:17.583Z,101415.59
2023-02-12T05:26:21.914Z,101418.19
2023-02-12T05:27:24.149Z,101426.03
2023-02-12T05:28:26.784Z,101413.06
2023-02-12T05:29:29.060Z,101413.03
2023-02-12T05:30:31.272Z,101414.81
2023-02-12T05:31:33.694Z,101424.47
2023-02-12T05:32:36.074Z,101416.75
2023-02-12T05:33:38.394Z,101419.31
2023-02-12T05:34:40.566Z,101416.59
2023-02-12T05:35:42.801Z,101425.16
2023-02-12T05:36:44.973Z,101418.94
2023-02-12T05:37:47.192Z,101411.19
2023-02-12T05:38:50.274Z,101422.50
2023-02-12T05:39:53.804Z,101419.91
2023-02-12T05:41:04.295Z,101423.31
2023-02-12T05:42:06.584Z,101418.88
2023-02-12T05:43:08.880Z,101424.78
2023-02-12T05:44:15.154Z,101423.06
2023-02-12T05:45:17.391Z,101422.19
2023-02-12T05:46:21.033Z,101416.97
2023-02-12T05:47:23.309Z,101424.78
2023-02-12T05:48:25.545Z,101423.78
2023-02-12T05:49:27.800Z,101422.88
2023-02-12T05:50:30.009Z,101421.22
2023-02-12T05:51:35.456Z,101416.22
2023-02-12T05:52:37.656Z,101417.22
2023-02-12T05:53:41.032Z,101418.16
2023-02-12T05:54:43.248Z,101426.03
2023-02-12T05:55:45.591Z,101413.91
2023-02-12T05:56:48.135Z,101419.13
2023-02-12T05:57:51.032Z,101420.81
2023-02-12T05:59:05.620Z,101423.38
2023-02-12T06:00:09.864Z,101426.03
2023-02-12T06:01:18.673Z,101422.47
2023-02-12T06:02:20.905Z,101422.56
2023-02-12T06:03:23.190Z,101419.22
2023-02-12T06:04:28.425Z,101414.19
2023-02-12T06:05:30.935Z,101413.41
2023-02-12T06:06:34.242Z,101422.09
2023-02-12T06:07:36.462Z,101422.19
2023-02-12T06:08:39.107Z,101419.56
2023-02-12T06:09:41.324Z,101416.69
2023-02-12T06:10:43.599Z,101423.47
2023-02-12T06:11:45.892Z,101421.63
2023-02-12T06:12:48.106Z,101425.84
2023-02-12T06:13:50.352Z,101430.06
2023-02-12T06:14:52.552Z,101421.38
2023-02-12T06:15:55.168Z,101431.84
2023-02-12T06:16:57.797Z,101422.28
2023-02-12T06:18:00.010Z,101430.25
2023-02-12T06:19:05.274Z,101422.44
2023-02-12T06:20:07.762Z,101422.50
2023-02-12T06:21:09.978Z,101420.03
2023-02-12T06:22:12.170Z,101428.66
2023-02-12T06:23:14.360Z,101422.72
2023-02-12T06:24:17.200Z,101425.44
2023-02-12T06:25:19.528Z,101421.06
2023-02-12T06:26:23.130Z,101422.78
2023-02-12T06:27:25.350Z,101430.63
2023-02-12T06:28:27.585Z,101429.72
2023-02-12T06:29:29.795Z,101428.81
2023-02-12T06:30:34.211Z,101434.00
2023-02-12T06:31:37.528Z,101427.88
2023-02-12T06:32:39.887Z,101430.44
2023-02-12T06:33:42.079Z,101433.69
2023-02-12T06:34:44.318Z,101450.22
2023-02-12T06:35:46.617Z,101450.91
2023-02-12T06:36:48.944Z,101449.94
2023-02-12T06:37:51.120Z,101449.00
2023-02-12T06:38:53.853Z,101457.69
2023-02-12T06:39:56.119Z,101460.22
2023-02-12T06:41:02.085Z,101457.66
2023-02-12T06:42:04.319Z,101461.31
2023-02-12T06:43:06.570Z,101460.34
2023-02-12T06:44:08.805Z,101453.63
2023-02-12T06:45:11.209Z,101467.53
2023-02-12T06:46:13.858Z,101458.94
2023-02-12T06:47:16.101Z,101459.00
2023-02-12T06:48:18.343Z,101463.25
2023-02-12T06:49:20.593Z,101458.97
2023-02-12T06:50:22.808Z,101462.19
2023-02-12T06:51:26.087Z,101459.72
2023-02-12T06:52:28.284Z,101462.22
2023-02-12T06:53:30.468Z,101470.53
2023-02-12T06:54:32.648Z,101468.66
2023-02-12T06:55:34.915Z,101461.59
2023-02-12T06:56:37.127Z,101468.63
2023-02-12T06:57:39.455Z,101468.69
2023-02-12T06:58:43.866Z,101469.50
2023-02-12T06:59:46.054Z,101466.91
2023-02-12T07:00:48.290Z,101466.84
2023-02-12T07:01:50.564Z,101471.25
2023-02-12T07:02:54.534Z,101472.94
2023-02-12T07:03:59.819Z,101479.91
2023-02-12T07:05:03.468Z,101476.47
2023-02-12T07:06:08.016Z,101481.66
2023-02-12T07:07:10.492Z,101468.66
2023-02-12T07:08:12.725Z,101466.06
2023-02-12T07:09:14.966Z,101460.00
2023-02-12T07:10:18.080Z,101472.19
2023-02-12T07:11:24.304Z,101474.06
2023-02-12T07:12:26.567Z,101469.84
2023-02-12T07:13:28.822Z,101472.31
2023-02-12T07:14:31.139Z,101463.78
2023-02-12T07:15:33.384Z,101475.06
2023-02-12T07:16:35.924Z,101465.41
2023-02-12T07:17:38.556Z,101461.03
2023-02-12T07:18:41.737Z,101463.72
2023-02-12T07:19:44.037Z,101468.97
2023-02-12T07:20:46.239Z,101466.28
2023-02-12T07:21:48.552Z,101477.50
2023-02-12T07:22:50.705Z,101472.25
2023-02-12T07:23:53.413Z,101465.28
2023-02-12T07:24:56.237Z,101469.66
2023-02-12T07:26:06.876Z,101468.88
2023-02-12T07:27:09.128Z,101463.72
2023-02-12T07:28:11.334Z,101468.97
2023-02-12T07:29:13.643Z,101465.44
2023-02-12T07:30:16.029Z,101469.78
2023-02-12T07:31:23.414Z,101472.31
2023-02-12T07:32:25.682Z,101475.03
2023-02-12T07:33:28.101Z,101467.44
2023-02-12T07:34:30.369Z,101473.50
2023-02-12T07:35:32.605Z,101469.25
2023-02-12T07:36:35.117Z,101466.66
2023-02-12T07:37:37.318Z,101463.94
2023-02-12T07:38:39.749Z,101467.34
2023-02-12T07:39:42.093Z,101466.44
2023-02-12T07:40:44.351Z,101461.34
2023-02-12T07:41:46.716Z,101462.41
2023-02-12T07:42:55.105Z,101465.84
2023-02-12T07:44:00.048Z,101458.91
2023-02-12T07:45:02.268Z,101465.00
2023-02-12T07:46:17.136Z,101472.19
2023-02-12T07:47:19.408Z,101458.38
2023-02-12T07:48:21.604Z,101467.03
2023-02-12T07:49:23.828Z,101472.25
2023-02-12T07:50:26.015Z,101464.53
2023-02-12T07:51:28.388Z,101466.28
2023-02-12T07:52:30.622Z,101467.16
2023-02-12T07:53:33.239Z,101470.63
2023-02-12T07:54:35.450Z,101466.41
2023-02-12T07:55:37.662Z,101462.84
2023-02-12T07:56:41.820Z,101466.41
2023-02-12T07:57:44.257Z,101462.94
2023-02-12T07:58:48.100Z,101465.69
2023-02-12T07:59:50.364Z,101462.25
2023-02-12T08:00:52.714Z,101463.91
2023-02-12T08:01:56.151Z,101462.16
2023-02-12T08:02:58.412Z,101469.06
2023-02-12T08:04:06.279Z,101462.13
2023-02-12T08:05:08.584Z,101458.69
2023-02-12T08:06:32.324Z,101466.50
2023-02-12T08:07:34.615Z,101460.44
2023-02-12T08:08:38.789Z,101466.41
2023-02-12T08:09:41.101Z,101467.44
2023-02-12T08:10:43.449Z,101461.41
2023-02-12T08:11:46.363Z,101457.03
2023-02-12T08:12:48.585Z,101460.41
2023-02-12T08:13:51.312Z,101464.81
2023-02-12T08:14:54.296Z,101468.41
2023-02-12T08:16:11.260Z,101464.22
2023-02-12T08:17:13.501Z,101466.00
2023-02-12T08:18:15.720Z,101459.19
2023-02-12T08:19:22.511Z,101464.38
2023-02-12T08:20:27.216Z,101452.34
2023-02-12T08:21:29.530Z,101457.78
2023-02-12T08:22:31.806Z,101454.50
2023-02-12T08:23:34.393Z,101456.25
2023-02-12T08:24:36.577Z,101452.75
2023-02-12T08:25:38.748Z,101450.06
2023-02-12T08:26:41.049Z,101458.69
2023-02-12T08:27:43.271Z,101450.00
2023-02-12T08:28:50.809Z,101454.53
2023-02-12T08:29:53.017Z,101464.16
2023-02-12T08:31:00.378Z,101460.50
2023-02-12T08:32:03.881Z,101460.50
2023-02-12T08:33:06.189Z,101458.03
2023-02-12T08:34:20.243Z,101459.78
2023-02-12T08:35:22.427Z,101462.59
2023-02-12T08:36:38.692Z,101462.59
2023-02-12T08:37:40.897Z,101462.50
2023-02-12T08:38:44.506Z,101465.22
2023-02-12T08:39:48.766Z,101470.41
2023-02-12T08:40:51.049Z,101465.97
2023-02-12T08:41:59.904Z,101469.44
2023-02-12T08:43:02.121Z,101469.59
2023-02-12T08:44:05.265Z,101471.25
2023-02-12T08:45:08.003Z,101472.06
2023-02-12T08:46:19.949Z,101470.28
2023-02-12T08:47:22.975Z,101471.25
2023-02-12T08:48:25.188Z,101475.75
2023-02-12T08:49:29.979Z,101470.59
2023-02-12T08:50:32.136Z,101467.31
2023-02-12T08:51:36.068Z,101475.97
2023-02-12T08:52:38.283Z,101474.00
2023-02-12T08:53:43.014Z,101473.16
2023-02-12T08:54:45.178Z,101471.50
2023-02-12T08:55:50.331Z,101470.53
2023-02-12T08:57:00.451Z,101476.63
2023-02-12T08:58:03.675Z,101480.94
2023-02-12T08:59:07.326Z,101481.66
2023-02-12T09:00:10.274Z,101472.97
2023-02-12T09:01:16.309Z,101473.03
2023-02-12T09:02:18.600Z,101467.91
2023-02-12T09:03:21.102Z,101478.34
2023-02-12T09:04:26.256Z,101471.38
2023-02-12T09:05:28.479Z,101476.78
2023-02-12T09:06:33.184Z,101472.47
2023-02-12T09:07:35.604Z,101467.22
2023-02-12T09:08:39.075Z,101469.06
2023-02-12T09:09:41.260Z,101473.44
2023-02-12T09:10:44.515Z,101481.28
2023-02-12T09:11:47.415Z,101480.28
2023-02-12T09:12:49.672Z,101471.63
2023-02-12T09:13:52.943Z,101475.97
2023-02-12T09:14:55.164Z,101467.34
2023-02-12T09:15:57.866Z,101472.53
2023-02-12T09:17:00.342Z,101476.09
2023-02-12T09:18:04.088Z,101458.75
2023-02-12T09:19:07.147Z,101475.16
2023-02-12T09:20:10.129Z,101485.59
2023-02-12T09:21:15.859Z,101477.69
2023-02-12T09:22:18.109Z,101472.53
2023-02-12T09:23:20.348Z,101483.09
2023-02-12T09:24:22.675Z,101472.81
2023-02-12T09:25:25.131Z,101482.41
2023-02-12T09:26:27.334Z,101481.59
2023-02-12T09:27:31.319Z,101480.72
2023-02-12T09:28:34.409Z,101480.56
2023-02-12T09:29:36.757Z,101481.44
2023-02-12T09:30:39.990Z,101477.16
2023-02-12T09:31:42.272Z,101474.63
2023-02-12T09:32:44.660Z,101469.44
2023-02-12T09:33:49.404Z,101479.91
2023-02-12T09:34:53.721Z,101473.00
2023-02-12T09:35:56.227Z,101472.22
2023-02-12T09:36:58.668Z,101466.97
2023-02-12T09:38:00.914Z,101474.81
2023-02-12T09:39:05.447Z,101464.25
2023-02-12T09:40:08.584Z,101478.22
2023-02-12T09:41:59.808Z,101471.25
2023-02-12T09:43:18.476Z,101471.28
2023-02-12T09:44:44.953Z,101478.19
2023-02-12T09:46:04.706Z,101479.81
2023-02-12T09:47:26.626Z,101479.94
2023-02-12T09:48:44.060Z,101484.31
2023-02-12T09:50:23.591Z,101489.31
2023-02-12T09:51:28.716Z,101486.72
2023-02-12T09:52:30.968Z,101486.63
2023-02-12T09:53:37.374Z,101483.06
2023-02-12T09:54:40.223Z,101486.41
2023-02-12T09:55:42.738Z,101489.06
2023-02-12T09:56:49.832Z,101473.38
2023-02-12T09:57:54.511Z,101490.81
2023-02-12T09:59:00.345Z,101478.63
2023-02-12T10:00:07.414Z,101480.38
2023-02-12T10:01:15.007Z,101477.75
2023-02-12T10:02:19.809Z,101487.31
2023-02-12T10:03:22.263Z,101483.78
2023-02-12T10:04:27.273Z,101474.28
2023-02-12T10:05:38.546Z,101481.41
2023-02-12T10:07:04.697Z,101481.47
2023-02-12T10:08:35.880Z,101472.03
2023-02-12T10:09:49.935Z,101471.22
2023-02-12T10:11:10.788Z,101479.75
2023-02-12T10:12:26.679Z,101472.88
2023-02-12T10:13:42.020Z,101472.00
2023-02-12T10:14:51.929Z,101472.00
2023-02-12T10:16:26.290Z,101478.03
2023-02-12T10:17:56.052Z,101469.28
2023-02-12T10:19:25.990Z,101460.75
2023-02-12T10:20:41.496Z,101479.00
2023-02-12T10:22:04.156Z,101475.38
2023-02-12T10:23:34.890Z,101474.47
2023-02-12T10:24:56.796Z,101472.72
2023-02-12T10:26:22.699Z,101477.03
2023-02-12T10:27:39.216Z,101472.66
2023-02-12T10:28:42.880Z,101474.44
2023-02-12T10:29:47.232Z,101471.84
2023-02-12T10:30:56.744Z,101476.25
2023-02-12T10:32:07.382Z,101478.88
2023-02-12T10:33:19.412Z,101482.31
2023-02-12T10:34:25.435Z,101468.25
2023-02-12T10:35:27.732Z,101486.50
2023-02-12T10:36:49.972Z,101483.97
2023-02-12T10:38:02.689Z,101468.56
2023-02-12T10:39:10.560Z,101479.00
2023-02-12T10:40:29.882Z,101481.41
2023-02-12T10:41:36.668Z,101472.75
2023-02-12T10:42:42.420Z,101472.75
2023-02-12T10:43:44.739Z,101477.97
2023-02-12T10:44:47.227Z,101477.91
2023-02-12T10:45:50.482Z,101471.00
2023-02-12T10:46:52.893Z,101469.31
2023-02-12T10:48:21.170Z,101476.28
2023-02-12T10:49:23.476Z,101474.53
2023-02-12T10:50:45.559Z,101471.03
2023-02-12T10:51:53.396Z,101467.59
2023-02-12T10:53:00.751Z,101464.97
2023-02-12T10:54:44.502Z,101455.47
2023-02-12T10:55:46.755Z,101472.81
2023-02-12T10:56:49.358Z,101458.88
2023-02-12T10:57:52.096Z,101446.75
2023-02-12T10:58:59.699Z,101447.72
2023-02-12T11:00:26.295Z,101457.28
2023-02-12T11:01:37.959Z,101452.03
2023-02-12T11:03:00.846Z,101448.63
2023-02-12T11:04:20.296Z,101445.25
2023-02-12T11:05:24.896Z,101445.28
2023-02-12T11:06:30.489Z,101438.28
2023-02-12T11:07:47.891Z,101439.13
2023-02-12T11:08:50.489Z,101440.00
2023-02-12T11:09:55.676Z,101439.13
2023-02-12T11:11:28.453Z,101434.84
2023-02-12T11:12:32.769Z,101439.19
2023-02-12T11:13:36.817Z,101434.00
2023-02-12T11:14:39.233Z,101442.72
2023-02-12T11:15:49.318Z,101433.09
2023-02-12T11:16:54.919Z,101440.06
2023-02-12T11:18:05.303Z,101447.94
2023-02-12T11:19:19.599Z,101441.84
2023-02-12T11:20:23.110Z,101440.06
2023-02-12T11:21:25.349Z,101445.28
2023-02-12T11:22:27.600Z,101447.03
2023-02-12T11:23:32.463Z,101440.06
2023-02-12T11:24:36.791Z,101436.66
2023-02-12T11:25:56.295Z,101438.44
2023-02-12T11:27:31.198Z,101438.41
2023-02-12T11:28:36.094Z,101432.28
2023-02-12T11:29:38.545Z,101439.25
2023-02-12T11:31:01.976Z,101440.13
2023-02-12T11:32:11.762Z,101434.00
2023-02-12T11:33:22.630Z,101432.25
2023-02-12T11:34:24.828Z,101431.34
2023-02-12T11:35:28.353Z,101433.13
2023-02-12T11:36:33.373Z,101420.94
2023-02-12T11:37:40.802Z,101433.19
2023-02-12T11:38:52.888Z,101422.72
2023-02-12T11:39:55.143Z,101424.47
2023-02-12T11:41:00.730Z,101434.09
2023-02-12T11:42:15.249Z,101425.34
2023-02-12T11:43:19.298Z,101416.63
2023-02-12T11:44:27.703Z,101420.09
2023-02-12T11:45:37.815Z,101419.22
2023-02-12T11:46:47.882Z,101422.72
2023-02-12T11:47:50.683Z,101417.50
2023-02-12T11:48:55.806Z,101414.91
2023-02-12T11:50:15.555Z,101414.88
2023-02-12T11:51:22.267Z,101426.22
2023-02-12T11:52:28.429Z,101413.16
2023-02-12T11:53:37.294Z,101414.88
2023-02-12T11:54:47.851Z,101410.50
2023-02-12T11:56:03.427Z,101416.63
2023-02-12T11:57:05.918Z,101407.88
2023-02-12T11:58:22.606Z,101407.03
2023-02-12T11:59:31.052Z,101414.00
2023-02-12T12:00:41.278Z,101411.38
2023-02-12T12:01:44.229Z,101402.66
2023-02-12T12:02:57.258Z,101406.16
2023-02-12T12:04:14.164Z,101398.31
2023-02-12T12:05:20.714Z,101404.41
2023-02-12T12:06:29.659Z,101402.66
2023-02-12T12:07:36.753Z,101402.66
2023-02-12T12:08:53.931Z,101412.28
2023-02-12T12:10:03.870Z,101412.28
2023-02-12T12:11:13.221Z,101404.41
2023-02-12T12:12:30.002Z,101405.25
2023-02-12T12:13:38.949Z,101403.50
2023-02-12T12:15:08.842Z,101397.41
2023-02-12T12:16:36.268Z,101389.56
2023-02-12T12:18:09.550Z,101398.31
2023-02-12T12:19:52.388Z,101385.22
2023-02-12T12:21:01.091Z,101393.91
2023-02-12T12:22:54.412Z,101391.28
2023-02-12T12:24:34.755Z,101398.22
2023-02-12T12:25:49.257Z,101399.16
2023-02-12T12:27:03.119Z,101389.53
2023-02-12T12:28:21.028Z,101390.47
2023-02-12T12:29:32.174Z,101391.31
2023-02-12T12:30:49.776Z,101386.03
2023-02-12T12:32:04.778Z,101382.53
2023-02-12T12:33:16.715Z,101386.91
2023-02-12T12:34:21.812Z,101383.41
2023-02-12T12:35:49.913Z,101382.53
2023-02-12T12:37:12.570Z,101380.00
2023-02-12T12:38:33.709Z,101379.09
2023-02-12T12:39:54.154Z,101378.22
2023-02-12T12:41:27.762Z,101378.25
2023-02-12T12:42:38.822Z,101376.50
2023-02-12T12:43:59.743Z,101376.50
2023-02-12T12:45:23.891Z,101370.41
2023-02-12T12:46:28.670Z,101377.34
2023-02-12T12:47:58.518Z,101376.50
2023-02-12T12:49:19.568Z,101382.63
2023-02-12T12:50:48.688Z,101379.09
2023-02-12T12:52:02.854Z,101371.22
2023-02-12T12:53:44.362Z,101380.81
2023-02-12T12:55:13.389Z,101365.09
2023-02-12T12:56:42.363Z,101370.41
2023-02-12T12:58:02.674Z,101365.16
2023-02-12T12:59:30.628Z,101364.28